Time;durP1;ratioP1;P1;durP2;ratioP2;P2;SDS_P1;SDS_P2;PMS_P1;PMS_P2;Temp;Humidity;BMP_temperature;BMP_pressure;BME280_temperature;BME280_humidity;BME280_pressure;Samples;Min_cycle;Max_cycle;Signal;HPM_P1;HPM_P2
2022/09/26 00:01:47;;;;;;;40.90;24.60;;;9.50;1.00;;;;;;6277618;22;20406;-78
2022/09/26 00:04:34;;;;;;;43.95;25.38;;;9.40;1.00;;;;;;6277015;22;20023;-80
2022/09/26 00:07:24;;;;;;;39.65;24.40;;;9.40;1.00;;;;;;6279613;22;20127;-83
2022/09/26 00:10:11;;;;;;;37.17;22.65;;;9.30;1.00;;;;;;6284379;22;20023;-79
2022/09/26 00:12:58;;;;;;;37.55;22.65;;;9.10;1.00;;;;;;6278897;22;20430;-79
2022/09/26 00:15:49;;;;;;;38.63;22.80;;;8.90;1.00;;;;;;6255785;22;20024;-79
2022/09/26 00:18:36;;;;;;;46.15;23.13;;;8.80;1.00;;;;;;6275347;22;20327;-81
2022/09/26 00:21:25;;;;;;;40.42;22.73;;;8.80;1.00;;;;;;6278690;22;20028;-80
2022/09/26 00:24:13;;;;;;;40.97;24.00;;;8.80;1.00;;;;;;6278667;22;20024;-80
2022/09/26 00:27:00;;;;;;;47.70;24.42;;;8.70;1.00;;;;;;6279528;22;20023;-79
2022/09/26 00:29:47;;;;;;;42.03;24.77;;;8.70;1.00;;;;;;6257112;22;20019;-80
2022/09/26 00:32:34;;;;;;;42.00;24.80;;;8.60;1.00;;;;;;6278040;22;20034;-80
2022/09/26 00:35:23;;;;;;;50.05;26.63;;;8.70;1.00;;;;;;6255199;22;20031;-80
2022/09/26 00:38:10;;;;;;;45.92;26.23;;;8.70;1.00;;;;;;6275868;22;20024;-79
2022/09/26 00:40:57;;;;;;;46.38;26.45;;;8.70;4.20;;;;;;6255217;22;20104;-80
2022/09/26 00:43:49;;;;;;;56.78;28.52;;;8.70;28.30;;;;;;6277627;22;20024;-80
2022/09/26 00:46:44;;;;;;;49.92;26.58;;;8.70;40.50;;;;;;6274006;22;20415;-81
2022/09/26 00:49:42;;;;;;;54.42;28.17;;;8.60;47.50;;;;;;6277467;22;20290;-81
2022/09/26 00:52:43;;;;;;;54.25;29.05;;;8.60;55.50;;;;;;6277862;22;20032;-79
2022/09/26 00:55:35;;;;;;;46.80;26.30;;;8.60;76.10;;;;;;6277116;22;20023;-81
2022/09/26 00:58:47;;;;;;;46.58;26.40;;;8.50;73.90;;;;;;6279029;22;20304;-81
2022/09/26 01:01:35;;;;;;;49.28;26.80;;;8.40;74.40;;;;;;6278991;22;20023;-81
2022/09/26 01:04:26;;;;;;;47.45;25.13;;;8.30;76.70;;;;;;6275697;22;20077;-79
2022/09/26 01:07:18;;;;;;;43.35;24.48;;;8.20;75.20;;;;;;6277070;22;20034;-79
2022/09/26 01:10:06;;;;;;;42.60;24.65;;;8.20;77.10;;;;;;6274341;22;20030;-80
2022/09/26 01:12:57;;;;;;;48.67;25.95;;;8.00;75.50;;;;;;6276754;22;20030;-80
2022/09/26 01:15:44;;;;;;;53.00;26.42;;;8.00;84.00;;;;;;6275570;22;20037;-79
2022/09/26 01:18:32;;;;;;;53.35;27.60;;;8.00;93.00;;;;;;6277321;22;20024;-81
2022/09/26 01:21:58;;;;;;;56.88;27.35;;;8.10;99.90;;;;;;6255907;22;20038;-80
2022/09/26 01:25:22;;;;;;;52.20;27.73;;;8.00;99.90;;;;;;6275139;22;20024;-80
2022/09/26 01:28:18;;;;;;;61.17;30.77;;;8.10;99.90;;;;;;6277476;22;20035;-79
2022/09/26 01:31:14;;;;;;;67.55;32.45;;;8.20;99.90;;;;;;6254951;22;20024;-81
2022/09/26 01:34:24;;;;;;;67.22;32.10;;;8.20;99.90;;;;;;6274898;22;20026;-81
2022/09/26 01:37:19;;;;;;;57.72;30.42;;;8.30;99.90;;;;;;6276269;22;20023;-78
2022/09/26 01:40:22;;;;;;;70.00;31.40;;;8.40;99.90;;;;;;6257858;22;20031;-81
2022/09/26 01:43:22;;;;;;;71.55;32.33;;;8.40;99.90;;;;;;6255439;22;20081;-78
2022/09/26 01:46:40;;;;;;;66.97;30.95;;;8.30;99.90;;;;;;6276286;22;20330;-78
2022/09/26 01:49:42;;;;;;;58.70;30.35;;;8.20;99.90;;;;;;6255275;22;20024;-80
2022/09/26 01:52:47;;;;;;;51.33;22.92;;;8.20;99.90;;;;;;6279821;22;20024;-79
2022/09/26 01:55:41;;;;;;;77.28;32.85;;;8.20;99.90;;;;;;6279070;22;20027;-78
2022/09/26 01:58:40;;;;;;;58.97;29.75;;;8.30;99.90;;;;;;6278724;22;20041;-80
2022/09/26 02:01:34;;;;;;;64.32;30.70;;;8.30;99.90;;;;;;6279754;22;20061;-81
2022/09/26 02:04:31;;;;;;;66.22;31.10;;;8.30;99.90;;;;;;6257341;22;20113;-81
2022/09/26 02:07:30;;;;;;;66.18;31.45;;;8.30;99.90;;;;;;6281268;22;20030;-80
2022/09/26 02:10:29;;;;;;;63.10;29.65;;;8.30;99.90;;;;;;6279613;22;20031;-80
2022/09/26 02:13:24;;;;;;;59.38;29.02;;;8.30;99.90;;;;;;6278528;22;20412;-80
2022/09/26 02:16:22;;;;;;;59.75;28.23;;;8.30;99.90;;;;;;6279856;22;20023;-81
2022/09/26 02:19:19;;;;;;;55.80;27.60;;;8.30;99.90;;;;;;6278269;22;20035;-81
2022/09/26 02:22:06;;;;;;;55.15;27.23;;;8.30;99.90;;;;;;6259584;22;20024;-82
2022/09/26 02:24:53;;;;;;;68.60;29.33;;;8.40;99.90;;;;;;6280683;22;20034;-81
2022/09/26 02:27:40;;;;;;;61.20;28.17;;;8.40;99.90;;;;;;6278145;22;20038;-80
2022/09/26 02:30:28;;;;;;;54.15;26.90;;;8.40;99.90;;;;;;6281514;22;20024;-81
2022/09/26 02:33:18;;;;;;;59.72;29.90;;;8.30;99.90;;;;;;6279850;22;20026;-80
2022/09/26 02:36:09;;;;;;;61.58;29.17;;;8.30;99.90;;;;;;6258478;22;20034;-81
2022/09/26 02:38:58;;;;;;;61.72;28.67;;;8.30;99.90;;;;;;6279893;22;20028;-81
2022/09/26 02:42:22;;;;;;;64.97;28.52;;;8.30;99.90;;;;;;6279973;22;20150;-79
2022/09/26 02:45:31;;;;;;;60.85;28.15;;;8.30;99.90;;;;;;6279276;22;20034;-80
2022/09/26 02:48:36;;;;;;;50.80;25.10;;;8.20;99.90;;;;;;6293175;22;20020;-79
2022/09/26 02:51:29;;;;;;;49.63;24.95;;;8.20;99.90;;;;;;6291350;22;20030;-80
2022/09/26 02:54:19;;;;;;;;;;;8.30;99.90;;;;;;6277068;22;20015;-78
2022/09/26 02:57:28;;;;;;;44.35;22.90;;;8.30;99.90;;;;;;6304485;22;19903;-80
2022/09/26 03:00:30;;;;;;;48.20;23.25;;;8.20;99.90;;;;;;6291576;22;20395;-79
2022/09/26 03:03:29;;;;;;;51.30;24.48;;;8.30;99.90;;;;;;6286970;22;20020;-77
2022/09/26 03:06:20;;;;;;;48.17;24.48;;;8.30;99.90;;;;;;6287859;22;20023;-82
2022/09/26 03:09:12;;;;;;;43.97;24.00;;;8.30;99.90;;;;;;6281320;22;20335;-78
2022/09/26 03:12:03;;;;;;;47.30;24.08;;;8.30;99.90;;;;;;6278358;22;20103;-80
2022/09/26 03:14:52;;;;;;;40.65;23.20;;;8.30;99.90;;;;;;6278508;22;20028;-81
2022/09/26 03:17:52;;;;;;;39.88;22.00;;;8.40;99.90;;;;;;6255731;22;20085;-80
2022/09/26 03:20:40;;;;;;;39.83;21.67;;;8.40;99.90;;;;;;6277193;22;20054;-80
2022/09/26 03:23:29;;;;;;;41.05;22.08;;;8.30;99.90;;;;;;6276052;22;20030;-80
2022/09/26 03:26:25;;;;;;;47.15;23.98;;;8.30;99.90;;;;;;6276615;22;20031;-80
2022/09/26 03:29:12;;;;;;;52.72;25.48;;;8.30;99.90;;;;;;6278291;22;20118;-80
2022/09/26 03:32:02;;;;;;;52.85;25.67;;;8.30;99.90;;;;;;6257887;22;20026;-81
2022/09/26 03:34:50;;;;;;;52.65;26.80;;;8.30;99.90;;;;;;6277306;22;20138;-80
2022/09/26 03:37:38;;;;;;;55.03;26.48;;;8.20;99.90;;;;;;6278268;22;20034;-80
2022/09/26 03:40:25;;;;;;;52.40;25.92;;;8.20;99.90;;;;;;6255048;22;20271;-78
2022/09/26 03:43:15;;;;;;;46.58;24.63;;;8.10;99.90;;;;;;6278696;22;20039;-78
2022/09/26 03:46:04;;;;;;;40.08;20.75;;;8.10;99.90;;;;;;6276307;22;20024;-80
2022/09/26 03:48:51;;;;;;;38.92;20.20;;;8.10;99.90;;;;;;6278542;22;20038;-82
2022/09/26 03:51:41;;;;;;;43.25;22.40;;;8.10;99.90;;;;;;6277179;22;20020;-79
2022/09/26 03:54:31;;;;;;;38.97;20.83;;;8.10;99.90;;;;;;6275741;22;20024;-79
2022/09/26 03:57:23;;;;;;;34.05;17.98;;;8.10;99.90;;;;;;6277527;22;20020;-79
2022/09/26 04:00:10;;;;;;;30.08;16.98;;;8.10;99.90;;;;;;6277926;22;20034;-78
2022/09/26 04:03:01;;;;;;;28.33;16.38;;;8.10;99.90;;;;;;6279425;22;20051;-80
2022/09/26 04:05:53;;;;;;;28.02;15.88;;;8.10;99.90;;;;;;6275817;22;20368;-80
2022/09/26 04:08:41;;;;;;;26.13;14.85;;;8.10;99.90;;;;;;6278817;22;20031;-79
2022/09/26 04:11:28;;;;;;;26.35;15.00;;;8.10;99.90;;;;;;6276842;22;20034;-81
2022/09/26 04:14:18;;;;;;;28.98;16.38;;;8.10;99.90;;;;;;6255977;22;20024;-81
2022/09/26 04:17:08;;;;;;;24.08;14.70;;;8.10;99.90;;;;;;6278718;22;20027;-81
2022/09/26 04:19:55;;;;;;;23.88;13.95;;;8.10;99.90;;;;;;6255212;22;20023;-81
2022/09/26 04:22:45;;;;;;;25.40;15.15;;;8.10;99.90;;;;;;6278694;22;20078;-81
2022/09/26 04:25:35;;;;;;;28.63;16.55;;;8.10;99.90;;;;;;6277889;22;20098;-80
2022/09/26 04:28:23;;;;;;;33.40;19.48;;;8.10;99.90;;;;;;6277760;22;20024;-80
2022/09/26 04:31:10;;;;;;;27.17;16.38;;;8.10;99.90;;;;;;6278188;22;20016;-81
2022/09/26 04:33:59;;;;;;;24.90;15.55;;;8.10;99.90;;;;;;6277933;22;20378;-80
2022/09/26 04:36:50;;;;;;;30.25;15.70;;;8.00;99.90;;;;;;6279297;22;20378;-80
2022/09/26 04:39:37;;;;;;;25.02;15.50;;;7.90;99.90;;;;;;6278405;22;20106;-80
2022/09/26 04:42:24;;;;;;;28.05;15.55;;;8.00;99.90;;;;;;6277145;22;20395;-81
2022/09/26 04:45:11;;;;;;;24.80;15.85;;;7.90;99.90;;;;;;6277688;22;20023;-80
2022/09/26 04:47:58;;;;;;;29.15;17.67;;;7.90;99.90;;;;;;6256182;22;20034;-81
2022/09/26 04:50:45;;;;;;;28.42;16.67;;;8.00;99.90;;;;;;6257300;22;20102;-80
2022/09/26 04:53:33;;;;;;;29.20;16.83;;;8.00;99.90;;;;;;6278122;22;20136;-80
2022/09/26 04:56:22;;;;;;;24.40;14.98;;;7.90;99.90;;;;;;6255180;22;20027;-81
2022/09/26 04:59:09;;;;;;;20.77;14.00;;;7.90;99.90;;;;;;6276930;22;20038;-80
2022/09/26 05:01:56;;;;;;;26.77;14.02;;;7.90;99.90;;;;;;6256342;22;20028;-79
2022/09/26 05:04:43;;;;;;;20.83;14.10;;;7.90;99.90;;;;;;6278720;22;20062;-79
2022/09/26 05:07:30;;;;;;;32.83;16.08;;;7.90;99.90;;;;;;6256053;22;20024;-80
2022/09/26 05:10:17;;;;;;;23.20;14.93;;;7.90;99.90;;;;;;6280205;22;20036;-79
2022/09/26 05:13:06;;;;;;;22.20;14.30;;;7.90;99.90;;;;;;6277809;22;20107;-80
2022/09/26 05:15:54;;;;;;;20.55;12.35;;;7.90;99.90;;;;;;6277311;22;20023;-82
2022/09/26 05:18:49;;;;;;;21.55;13.80;;;7.90;99.90;;;;;;6278558;22;20110;-79
2022/09/26 05:21:37;;;;;;;27.52;15.15;;;7.90;99.90;;;;;;6282672;22;20451;-80
2022/09/26 05:27:34;;;;;;;25.30;15.50;;;8.00;99.90;;;;;;6280926;22;20052;-79
2022/09/26 05:30:30;;;;;;;22.73;15.52;;;7.90;99.90;;;;;;6257246;22;20032;-79
2022/09/26 05:33:18;;;;;;;21.40;14.00;;;7.90;99.90;;;;;;6280283;22;20051;-81
2022/09/26 05:36:07;;;;;;;27.60;14.85;;;8.00;99.90;;;;;;6285911;22;20315;-80
2022/09/26 05:39:02;;;;;;;24.25;16.27;;;8.00;99.90;;;;;;6279790;22;20046;-80
2022/09/26 05:41:51;;;;;;;23.52;15.32;;;8.00;99.90;;;;;;6275830;22;20031;-79
2022/09/26 05:44:38;;;;;;;22.98;14.63;;;8.10;99.90;;;;;;6256113;22;20034;-80
2022/09/26 05:47:32;;;;;;;25.63;14.48;;;8.20;99.90;;;;;;6280738;22;20319;-81
2022/09/26 05:50:21;;;;;;;22.30;14.60;;;8.20;99.90;;;;;;6281284;22;20028;-82
2022/09/26 05:53:08;;;;;;;19.95;14.48;;;8.20;99.90;;;;;;6255262;22;20051;-80
2022/09/26 05:55:55;;;;;;;28.88;13.82;;;8.20;99.90;;;;;;6254970;22;20039;-80
2022/09/26 05:58:42;;;;;;;21.90;14.75;;;8.20;99.90;;;;;;6278451;22;20023;-80
2022/09/26 06:01:34;;;;;;;27.67;14.68;;;8.30;99.90;;;;;;6277000;22;20023;-80
2022/09/26 06:04:21;;;;;;;24.17;15.03;;;8.30;99.90;;;;;;6257168;22;20039;-80
2022/09/26 06:07:09;;;;;;;18.83;13.90;;;8.30;99.90;;;;;;6278296;22;20672;-81
2022/09/26 06:09:56;;;;;;;20.25;13.15;;;8.40;99.90;;;;;;6277921;22;20023;-81
2022/09/26 06:12:43;;;;;;;22.73;13.25;;;8.40;99.90;;;;;;6277352;22;20023;-80
2022/09/26 06:15:36;;;;;;;24.40;13.55;;;8.50;99.90;;;;;;6279945;22;20023;-80
2022/09/26 06:18:24;;;;;;;18.73;12.60;;;8.60;99.90;;;;;;6276198;22;20443;-80
2022/09/26 06:21:14;;;;;;;17.58;12.27;;;8.70;99.90;;;;;;6277176;22;20027;-80
2022/09/26 06:24:06;;;;;;;16.60;11.55;;;8.70;80.80;;;;;;6277213;22;20483;-80
2022/09/26 06:26:53;;;;;;;10.95;8.52;;;8.80;43.40;;;;;;6256545;22;20019;-81
2022/09/26 06:29:40;;;;;;;14.02;10.70;;;8.90;1.00;;;;;;6277719;22;20028;-81
2022/09/26 06:32:28;;;;;;;17.13;10.88;;;9.00;1.00;;;;;;6279386;22;20309;-81
2022/09/26 06:35:15;;;;;;;12.68;9.88;;;9.00;99.90;;;;;;6280011;22;20047;-80
2022/09/26 06:38:04;;;;;;;10.98;8.75;;;9.00;1.00;;;;;;6278526;22;20131;-80
2022/09/26 06:40:51;;;;;;;13.70;8.45;;;9.10;1.00;;;;;;6280569;22;20104;-81
2022/09/26 06:43:39;;;;;;;10.50;7.90;;;9.20;1.00;;;;;;6256602;22;20133;-79
2022/09/26 06:46:26;;;;;;;10.90;8.50;;;9.30;1.00;;;;;;6277910;22;20030;-79
2022/09/26 06:49:13;;;;;;;11.15;8.25;;;9.40;99.90;;;;;;6278814;22;20020;-79
2022/09/26 06:52:01;;;;;;;11.38;7.57;;;9.40;1.00;;;;;;6278983;22;20430;-80
2022/09/26 06:54:48;;;;;;;8.23;7.30;;;9.50;99.90;;;;;;6278418;22;20034;-79
2022/09/26 06:57:38;;;;;;;8.38;7.38;;;9.60;99.90;;;;;;6278061;22;20054;-81
2022/09/26 07:00:28;;;;;;;12.25;7.03;;;9.70;1.00;;;;;;6279933;22;20439;-80
2022/09/26 07:03:16;;;;;;;9.25;7.22;;;9.70;99.90;;;;;;6276962;22;20408;-79
2022/09/26 07:06:06;;;;;;;9.10;6.93;;;9.80;5.30;;;;;;6254944;22;20099;-79
2022/09/26 07:08:53;;;;;;;8.68;7.22;;;9.80;1.00;;;;;;6280129;22;20028;-78
2022/09/26 07:11:49;;;;;;;12.43;6.97;;;9.80;99.90;;;;;;6280278;22;20034;-80
2022/09/26 07:14:59;;;;;;;8.18;6.75;;;9.90;99.90;;;;;;6279041;22;20106;-80
2022/09/26 07:17:47;;;;;;;7.75;6.95;;;10.10;80.70;;;;;;6279473;22;20051;-80
2022/09/26 07:20:39;;;;;;;17.23;7.80;;;10.10;1.00;;;;;;6277570;22;20307;-79
2022/09/26 07:23:26;;;;;;;13.93;5.83;;;10.10;99.90;;;;;;6277308;22;20478;-80
2022/09/26 07:26:13;;;;;;;9.85;7.15;;;10.20;99.90;;;;;;6276975;22;20681;-79
2022/09/26 07:29:00;;;;;;;8.15;6.65;;;10.10;99.90;;;;;;6256305;22;20031;-80
2022/09/26 07:31:47;;;;;;;10.27;7.00;;;10.20;60.70;;;;;;6280180;22;20023;-80
2022/09/26 07:34:37;;;;;;;9.10;6.18;;;10.30;1.00;;;;;;6277062;22;20023;-80
2022/09/26 07:37:25;;;;;;;7.43;5.88;;;10.30;1.00;;;;;;6277283;22;20054;-79
2022/09/26 07:40:16;;;;;;;13.60;6.88;;;10.40;1.00;;;;;;6280784;22;20032;-79
2022/09/26 07:43:04;;;;;;;9.15;6.55;;;10.40;1.00;;;;;;6280021;22;20027;-79
2022/09/26 07:52:25;;;;;;;7.88;6.18;;;10.60;99.90;;;;;;6278217;22;20458;-79
2022/09/26 07:55:18;;;;;;;8.60;6.28;;;10.70;99.90;;;;;;6277396;22;20024;-80
2022/09/26 07:58:08;;;;;;;8.73;6.20;;;10.70;99.90;;;;;;6275871;22;20407;-81
2022/09/26 08:00:55;;;;;;;8.00;5.88;;;10.70;99.90;;;;;;6277111;22;20046;-82
2022/09/26 08:03:49;;;;;;;12.02;6.97;;;10.70;99.90;;;;;;6277989;22;20027;-81
2022/09/26 08:06:39;;;;;;;8.68;6.10;;;10.90;99.90;;;;;;6277767;22;20046;-79
2022/09/26 08:09:27;;;;;;;7.60;5.97;;;11.10;99.90;;;;;;6276672;22;20076;-82
2022/09/26 08:12:14;;;;;;;10.95;6.25;;;11.10;99.90;;;;;;6276576;22;20019;-81
2022/09/26 08:15:06;;;;;;;10.38;6.43;;;11.20;99.90;;;;;;6255614;22;20103;-81
2022/09/26 08:17:53;;;;;;;7.93;6.63;;;11.50;99.90;;;;;;6277705;22;20034;-79
2022/09/26 08:20:45;;;;;;;8.70;5.38;;;11.70;72.50;;;;;;6278101;22;20038;-81
2022/09/26 08:23:35;;;;;;;10.15;6.05;;;11.90;1.00;;;;;;6279851;22;20107;-82
2022/09/26 08:26:22;;;;;;;8.60;5.70;;;12.10;1.00;;;;;;6279351;22;20346;-82
2022/09/26 08:29:11;;;;;;;9.05;5.30;;;12.30;1.00;;;;;;6277259;22;20027;-82
2022/09/26 08:32:02;;;;;;;7.35;4.97;;;12.30;1.00;;;;;;6278142;22;20050;-81
2022/09/26 08:34:51;;;;;;;10.32;4.90;;;12.40;1.00;;;;;;6277333;22;20051;-81
2022/09/26 08:37:39;;;;;;;8.85;5.07;;;12.50;1.00;;;;;;6279883;22;20116;-82
2022/09/26 08:40:55;;;;;;;7.50;4.63;;;12.40;1.00;;;;;;6255387;22;20027;-81
2022/09/26 08:44:06;;;;;;;7.55;4.50;;;12.70;1.00;;;;;;6250096;22;20288;-81
2022/09/26 08:47:05;;;;;;;6.97;4.15;;;13.60;99.90;;;;;;6275260;22;20657;-80
2022/09/26 08:50:16;;;;;;;8.40;4.53;;;14.50;99.90;;;;;;6256244;22;20024;-80
2022/09/26 08:53:12;;;;;;;5.50;3.45;;;14.80;99.90;;;;;;6255857;22;20047;-81
2022/09/26 08:56:02;;;;;;;6.55;3.85;;;14.90;99.90;;;;;;6279396;22;20038;-82
2022/09/26 08:58:53;;;;;;;5.25;3.75;;;15.20;99.90;;;;;;6257167;22;20445;-81
2022/09/26 09:01:43;;;;;;;8.73;4.18;;;15.20;99.90;;;;;;6277055;22;20079;-83
2022/09/26 09:04:43;;;;;;;7.50;3.92;;;14.80;99.90;;;;;;6281106;22;20035;-82
2022/09/26 09:07:30;;;;;;;7.53;3.90;;;14.50;99.90;;;;;;6279861;22;20023;-81
2022/09/26 09:10:30;;;;;;;8.48;3.95;;;14.90;99.90;;;;;;6280290;22;20107;-82
2022/09/26 09:13:23;;;;;;;8.63;3.75;;;15.00;99.90;;;;;;6281025;22;20085;-81
2022/09/26 09:16:39;;;;;;;5.25;3.92;;;15.10;99.90;;;;;;6282876;22;20042;-83
2022/09/26 09:19:58;;;;;;;6.55;3.50;;;15.10;99.90;;;;;;6243684;22;20028;-81
2022/09/26 09:23:15;;;;;;;8.88;3.40;;;15.40;99.90;;;;;;6280972;22;20027;-83
2022/09/26 09:26:23;;;;;;;6.30;2.90;;;15.70;99.90;;;;;;6257203;22;20027;-81
2022/09/26 09:30:10;;;;;;;5.10;3.45;;;15.70;99.90;;;;;;6262050;22;20042;-83
2022/09/26 09:33:16;;;;;;;3.58;2.60;;;15.90;99.90;;;;;;6277925;22;20046;-82
2022/09/26 09:36:10;;;;;;;6.97;2.03;;;16.70;99.90;;;;;;6279051;22;20020;-82
2022/09/26 09:39:04;;;;;;;3.78;2.13;;;17.60;99.90;;;;;;6278320;22;20107;-82
2022/09/26 09:42:02;;;;;;;6.78;2.53;;;17.50;99.90;;;;;;6279415;22;20106;-82
2022/09/26 09:45:24;;;;;;;7.70;2.72;;;16.80;99.90;;;;;;6277948;22;20102;-84
2022/09/26 09:48:12;;;;;;;5.20;2.17;;;17.50;99.90;;;;;;6278225;22;20162;-82
2022/09/26 09:51:38;;;;;;;3.05;2.28;;;17.40;99.90;;;;;;6260233;22;20016;-83
2022/09/26 09:54:28;;;;;;;3.97;2.10;;;17.40;96.00;;;;;;6280771;22;20082;-79
2022/09/26 09:57:42;;;;;;;4.03;2.42;;;15.60;98.50;;;;;;6289046;22;20062;-81
2022/09/26 10:00:32;;;;;;;5.55;3.42;;;14.50;99.90;;;;;;6248649;22;20027;-80
2022/09/26 10:03:26;;;;;;;5.40;3.30;;;14.00;99.90;;;;;;6294705;22;20016;-78
2022/09/26 10:06:13;;;;;;;5.32;1.98;;;14.00;99.90;;;;;;6302831;22;20022;-80
2022/09/26 10:09:28;;;;;;;4.90;2.30;;;15.00;99.90;;;;;;6289262;22;20035;-80
2022/09/26 10:12:31;;;;;;;5.97;2.10;;;14.70;99.90;;;;;;6264173;22;20076;-81
2022/09/26 10:15:26;;;;;;;5.85;2.17;;;14.00;99.90;;;;;;6277724;22;20020;-80
2022/09/26 10:18:20;;;;;;;3.65;1.75;;;13.70;99.90;;;;;;6276752;22;20030;-82
2022/09/26 10:21:17;;;;;;;4.63;1.60;;;13.60;99.90;;;;;;6275653;22;20095;-79
2022/09/26 10:24:27;;;;;;;2.33;1.30;;;13.80;99.90;;;;;;6258297;22;20106;-83
2022/09/26 10:27:38;;;;;;;1.65;1.10;;;15.50;99.90;;;;;;6283586;22;20027;-81
2022/09/26 10:30:30;;;;;;;1.90;1.20;;;16.60;84.50;;;;;;6258566;22;20094;-80
2022/09/26 10:33:28;;;;;;;5.25;1.30;;;16.20;69.40;;;;;;6261377;22;20024;-83
2022/09/26 10:36:28;;;;;;;4.63;1.42;;;15.60;67.60;;;;;;6284830;22;20108;-83
2022/09/26 10:42:21;;;;;;;2.00;1.10;;;15.20;69.20;;;;;;6282336;22;20020;-82
2022/09/26 10:45:19;;;;;;;2.13;1.40;;;15.40;63.20;;;;;;6257595;22;20059;-83
2022/09/26 10:48:10;;;;;;;4.22;1.30;;;16.60;56.20;;;;;;6278824;22;20027;-84
2022/09/26 10:50:59;;;;;;;2.72;1.30;;;17.60;44.20;;;;;;6278145;22;20023;-83
2022/09/26 10:53:51;;;;;;;3.90;1.08;;;16.90;41.70;;;;;;6280854;22;20095;-81
2022/09/26 10:56:46;;;;;;;3.10;1.70;;;15.90;37.50;;;;;;6256591;22;20421;-83
2022/09/26 10:59:38;;;;;;;4.38;1.80;;;15.50;41.50;;;;;;6256726;22;20415;-81
2022/09/26 11:02:27;;;;;;;2.33;1.38;;;14.80;44.30;;;;;;6264154;22;20059;-82
2022/09/26 11:08:33;;;;;;;2.25;1.40;;;14.30;59.10;;;;;;6278259;22;20027;-81
2022/09/26 11:11:21;;;;;;;4.00;1.85;;;13.90;76.00;;;;;;6258469;22;20024;-81
2022/09/26 11:14:08;;;;;;;3.05;1.70;;;13.30;80.80;;;;;;6277914;22;20034;-80
2022/09/26 11:16:56;;;;;;;5.95;2.00;;;13.00;99.90;;;;;;6280207;22;20292;-81
2022/09/26 11:19:59;;;;;;;5.43;2.25;;;12.70;99.90;;;;;;6253489;22;20036;-81
2022/09/26 11:22:51;;;;;;;;;;;12.50;99.90;;;;;;6277134;22;20036;-79
2022/09/26 11:26:15;;;;;;;3.15;1.80;;;12.20;99.90;;;;;;6277311;22;20279;-82
2022/09/26 11:29:26;;;;;;;2.88;1.70;;;12.90;99.90;;;;;;6278840;22;20318;-85
2022/09/26 11:32:39;;;;;;;3.00;1.42;;;15.00;99.90;;;;;;6279016;22;20094;-84
2022/09/26 11:35:43;;;;;;;2.42;1.38;;;15.70;99.90;;;;;;6279281;22;20030;-81
2022/09/26 11:38:56;;;;;;;1.90;1.30;;;16.90;91.70;;;;;;6278497;22;20103;-85
2022/09/26 11:42:24;;;;;;;3.45;1.70;;;16.00;66.50;;;;;;6277560;22;20089;-83
2022/09/26 11:45:33;;;;;;;5.90;1.50;;;14.90;80.60;;;;;;6237108;22;20024;-82
2022/09/26 11:48:38;;;;;;;2.05;1.10;;;15.00;82.20;;;;;;6279162;22;20024;-83
2022/09/26 11:51:45;;;;;;;2.55;0.95;;;15.10;57.60;;;;;;6278228;22;20085;-83
2022/09/26 11:55:11;;;;;;;2.72;1.33;;;14.80;51.90;;;;;;6277007;22;20089;-82
2022/09/26 11:58:39;;;;;;;3.72;2.42;;;14.60;53.70;;;;;;6156863;23;20030;-80
2022/09/26 12:01:53;;;;;;;1.77;1.38;;;14.30;60.00;;;;;;6280081;22;20024;-82
2022/09/26 12:05:15;;;;;;;3.60;1.40;;;14.30;74.50;;;;;;6281172;22;20032;-83
2022/09/26 12:08:39;;;;;;;3.47;1.27;;;14.30;75.90;;;;;;6275960;22;20116;-83
2022/09/26 12:11:42;;;;;;;3.70;1.33;;;15.70;61.00;;;;;;6277263;22;20027;-83
2022/09/26 12:14:35;;;;;;;;;;;17.30;42.60;;;;;;6278345;22;20019;-81
2022/09/26 12:17:48;;;;;;;1.85;0.90;;;17.90;30.50;;;;;;6276299;22;20334;-83
2022/09/26 12:20:56;;;;;;;1.60;0.60;;;18.50;24.10;;;;;;6277937;22;20066;-82
2022/09/26 12:23:53;;;;;;;1.52;1.00;;;19.20;14.40;;;;;;6279139;22;20106;-81
2022/09/26 12:26:58;;;;;;;2.63;0.80;;;18.00;17.60;;;;;;6279311;22;20020;-81
2022/09/26 12:29:57;;;;;;;2.53;1.00;;;15.80;9.20;;;;;;6282287;22;20024;-82
2022/09/26 12:32:55;;;;;;;2.45;1.20;;;14.80;15.40;;;;;;6260435;22;20150;-83
2022/09/26 12:35:50;;;;;;;1.83;1.10;;;14.40;22.10;;;;;;6269906;22;20102;-82
2022/09/26 12:38:52;;;;;;;1.73;0.90;;;14.10;25.10;;;;;;6286644;22;20107;-83
2022/09/26 12:41:50;;;;;;;3.47;1.10;;;14.00;33.20;;;;;;6281978;22;20047;-82
2022/09/26 12:44:52;;;;;;;1.10;1.00;;;13.80;36.20;;;;;;6285661;22;20036;-80
2022/09/26 12:47:51;;;;;;;5.18;1.30;;;13.60;46.10;;;;;;6279723;22;20038;-80
2022/09/26 12:50:42;;;;;;;2.78;1.27;;;13.60;59.90;;;;;;6258585;22;20020;-81
2022/09/26 12:53:42;;;;;;;2.83;1.38;;;13.70;60.10;;;;;;6279716;22;20078;-81
2022/09/26 12:56:41;;;;;;;2.22;0.93;;;13.40;47.70;;;;;;6256601;22;20447;-80
2022/09/26 13:00:09;;;;;;;2.15;1.10;;;12.90;54.60;;;;;;6278359;22;20034;-83
2022/09/26 13:03:12;;;;;;;1.67;0.90;;;12.40;95.10;;;;;;6278075;22;20020;-84
2022/09/26 13:06:17;;;;;;;1.98;1.00;;;11.80;99.90;;;;;;6254641;22;20065;-79
2022/09/26 13:09:18;;;;;;;1.60;1.00;;;11.70;99.90;;;;;;6276444;22;20034;-80
2022/09/26 13:12:19;;;;;;;1.33;1.05;;;11.80;99.90;;;;;;6276342;22;20069;-85
2022/09/26 13:15:11;;;;;;;1.50;1.00;;;11.90;99.90;;;;;;6275019;22;20024;-82
2022/09/26 13:18:11;;;;;;;;;;;12.10;99.90;;;;;;6279601;22;20027;-81
2022/09/26 13:21:07;;;;;;;2.15;0.90;;;12.70;99.90;;;;;;6276404;22;19919;-80
2022/09/26 13:23:59;;;;;;;1.58;0.82;;;13.40;99.90;;;;;;6278192;22;20086;-79
2022/09/26 13:26:53;;;;;;;2.42;0.88;;;13.50;94.40;;;;;;6275267;22;20058;-82
2022/09/26 13:29:45;;;;;;;2.72;0.85;;;14.20;83.10;;;;;;6276310;22;20020;-81
2022/09/26 13:32:46;;;;;;;3.60;0.90;;;14.80;61.60;;;;;;6275883;22;20106;-81
2022/09/26 13:35:36;;;;;;;1.40;0.80;;;15.00;61.10;;;;;;6274950;22;20028;-81
2022/09/26 13:39:01;;;;;;;1.25;0.65;;;17.00;49.90;;;;;;6254133;22;20335;-80
2022/09/26 13:42:12;;;;;;;2.70;0.70;;;18.10;24.70;;;;;;6278863;22;20823;-84
2022/09/26 13:45:37;;;;;;;1.77;0.93;;;17.80;17.50;;;;;;6279042;22;20314;-81
2022/09/26 13:48:59;;;;;;;1.45;0.60;;;18.10;16.40;;;;;;6275473;22;20019;-82
2022/09/26 13:51:53;;;;;;;1.25;0.70;;;18.30;11.70;;;;;;6276146;22;20046;-81
2022/09/26 13:54:43;;;;;;;1.92;1.00;;;16.90;11.90;;;;;;6255814;22;20026;-81
2022/09/26 13:57:30;;;;;;;1.52;1.00;;;16.60;14.70;;;;;;6275892;22;20062;-82
2022/09/26 14:00:24;;;;;;;2.60;0.98;;;16.10;13.60;;;;;;6278089;22;20334;-79
2022/09/26 14:03:17;;;;;;;1.38;1.00;;;14.90;20.80;;;;;;6256224;22;20020;-80
2022/09/26 14:06:25;;;;;;;1.98;1.23;;;14.40;35.20;;;;;;6276362;22;20038;-81
2022/09/26 14:09:22;;;;;;;1.38;1.10;;;14.20;43.60;;;;;;6257977;22;20354;-82
2022/09/26 14:12:19;;;;;;;3.50;1.40;;;13.90;50.30;;;;;;6277136;22;20050;-80
2022/09/26 14:15:22;;;;;;;4.57;1.30;;;13.70;65.70;;;;;;6279767;22;20039;-83
2022/09/26 14:18:22;;;;;;;7.57;1.30;;;13.50;75.60;;;;;;6276945;22;20358;-82
2022/09/26 14:21:11;;;;;;;2.25;1.65;;;13.50;78.40;;;;;;6278677;22;20023;-82
2022/09/26 14:24:24;;;;;;;4.07;1.60;;;13.40;79.60;;;;;;6279435;22;20091;-82
2022/09/26 14:27:11;;;;;;;;;;;13.30;92.10;;;;;;6258946;22;20417;-82
2022/09/26 14:30:12;;;;;;;2.13;1.13;;;13.00;89.20;;;;;;6276660;22;19915;-83
2022/09/26 14:33:03;;;;;;;2.03;1.23;;;12.80;93.60;;;;;;6277750;22;20116;-82
2022/09/26 14:35:51;;;;;;;4.10;1.30;;;12.80;97.50;;;;;;6257377;22;20109;-82
2022/09/26 14:38:39;;;;;;;2.80;1.48;;;13.10;99.90;;;;;;6278853;22;20027;-81
2022/09/26 14:41:32;;;;;;;1.70;1.23;;;13.30;96.80;;;;;;6278668;22;20024;-82
2022/09/26 14:44:21;;;;;;;2.80;1.38;;;13.30;84.30;;;;;;6277267;22;20315;-79
2022/09/26 14:47:14;;;;;;;1.83;1.33;;;13.20;86.30;;;;;;6257580;22;20030;-80
2022/09/26 14:50:05;;;;;;;2.78;1.20;;;13.10;82.70;;;;;;6277543;22;20374;-82
2022/09/26 14:53:01;;;;;;;2.38;1.10;;;12.80;82.10;;;;;;6278116;22;20099;-82
2022/09/26 14:56:12;;;;;;;1.60;1.15;;;12.70;85.80;;;;;;6277005;22;20023;-81
2022/09/26 14:59:15;;;;;;;1.40;0.80;;;12.60;87.00;;;;;;6237088;22;20318;-84
2022/09/26 15:02:33;;;;;;;1.08;0.98;;;12.60;75.90;;;;;;6277469;22;20394;-82
2022/09/26 15:05:24;;;;;;;2.30;0.90;;;12.50;66.10;;;;;;6279088;22;20053;-82
2022/09/26 15:08:27;;;;;;;1.77;0.98;;;12.50;63.90;;;;;;6279643;22;20323;-82
2022/09/26 15:11:37;;;;;;;1.33;0.90;;;12.50;60.50;;;;;;6277207;22;20174;-80
2022/09/26 15:14:38;;;;;;;0.90;0.90;;;12.60;58.50;;;;;;6279231;22;20024;-81
2022/09/26 15:17:33;;;;;;;1.75;0.77;;;12.50;55.00;;;;;;6278428;22;20093;-83
2022/09/26 15:20:24;;;;;;;1.00;0.82;;;12.50;56.60;;;;;;6276534;22;20300;-81
2022/09/26 15:23:27;;;;;;;1.00;0.90;;;12.40;62.30;;;;;;6277222;22;20103;-81
2022/09/26 15:26:20;;;;;;;1.33;1.23;;;12.30;67.40;;;;;;6258463;22;20030;-82
2022/09/26 15:29:11;;;;;;;0.90;0.82;;;12.30;72.50;;;;;;6276213;22;20319;-82